WA6MHA-11 Weather Reports


Display with metric or nautical units.
time (UTC)temp
F
wind
direction
speed
MPH
gust
MPH
rain 1hr
in
rain 24hr
in
rain mn
in
humidity
%
barometer
mb
20181020023358 77 9 5.0 6.0 0.00 0.00 0.03 11 1016.9
20181020022836 77 42 3.0 8.0 0.00 0.00 0.03 10 1016.9
20181020022550 77 42 3.0 8.0 0.00 0.00 0.03 10 1016.9
20181020022332 78 0 1.0 5.0 0.00 0.00 0.03 10 1016.8
20181020022149 78 0 1.0 5.0 0.00 0.00 0.03 10 1016.8
20181020022039 79 0 2.0 11.0 0.00 0.00 0.03 9 1016.8
20181020021958 78 357 2.0 3.0 0.00 0.00 0.03 10 1016.8
20181020021747 78 357 2.0 3.0 0.00 0.00 0.03 10 1016.8
20181020021510 79 0 2.0 11.0 0.00 0.00 0.03 9 1016.8
20181020021505 79 45 7.0 10.0 0.00 0.00 0.03 9 1016.7
20181020021346 79 0 2.0 11.0 0.00 0.00 0.03 9 1016.8
20181020021058 79 67 5.0 10.0 0.00 0.00 0.03 9 1016.8
20181020020944 79 67 5.0 10.0 0.00 0.00 0.03 9 1016.8
20181020020827 79 45 7.0 10.0 0.00 0.00 0.03 9 1016.7
20181020020543 79 45 7.0 10.0 0.00 0.00 0.03 9 1016.7
20181020020458 80 49 4.0 9.0 0.00 0.00 0.03 9 1016.7
20181020020142 80 49 4.0 9.0 0.00 0.00 0.03 9 1016.7
20181020015941 80 45 8.0 9.0 0.00 0.00 0.03 8 1016.6
20181020015906 80 45 8.0 9.0 0.00 0.00 0.03 8 1016.6
20181020015741 80 45 8.0 9.0 0.00 0.00 0.03 8 1016.6
20181020015339 80 33 6.0 10.0 0.00 0.00 0.03 8 1016.6
20181020015336 81 45 9.0 14.0 0.00 0.00 0.03 8 1016.6
20181020014938 81 45 9.0 14.0 0.00 0.00 0.03 8 1016.6
20181020014838 81 42 7.0 13.0 0.00 0.00 0.03 7 1016.6
20181020014739 81 42 7.0 13.0 0.00 0.00 0.03 7 1016.6
20181020014543 81 42 7.0 13.0 0.00 0.00 0.03 7 1016.6
20181020014335 81 31 8.0 15.0 0.00 0.00 0.03 7 1016.5
20181020014135 81 31 8.0 15.0 0.00 0.00 0.03 7 1016.5
20181020013734 81 33 15.0 15.0 0.00 0.00 0.03 7 1016.5
20181020013532 81 45 9.0 13.0 0.00 0.00 0.03 7 1016.6
20181020013333 81 45 9.0 13.0 0.00 0.00 0.03 7 1016.6
20181020013208 81 38 4.0 10.0 0.00 0.00 0.03 7 1016.6
20181020012932 81 38 4.0 10.0 0.00 0.00 0.03 7 1016.6
20181020012530 82 6 10.0 15.0 0.00 0.00 0.03 7 1016.4
20181020012333 82 20 7.0 13.0 0.00 0.00 0.03 7 1016.5
20181020012129 82 20 7.0 13.0 0.00 0.00 0.03 7 1016.5
20181020012046 82 45 8.0 12.0 0.00 0.00 0.03 7 1016.4
20181020011727 82 45 8.0 12.0 0.00 0.00 0.03 7 1016.4
20181020011326 82 33 12.0 20.0 0.00 0.00 0.03 7 1016.5
20181020010925 82 40 7.0 13.0 0.00 0.00 0.03 7 1016.3
20181020010524 83 9 15.0 17.0 0.00 0.00 0.03 7 1016.3
20181020010400 83 10 6.0 13.0 0.00 0.00 0.03 7 1016.4
20181020010122 83 10 6.0 13.0 0.00 0.00 0.03 7 1016.4
20181020005919 83 11 13.0 21.0 0.00 0.00 0.03 7 1016.4
20181020005721 83 11 13.0 21.0 0.00 0.00 0.03 7 1016.4
20181020005615 83 0 21.0 21.0 0.00 0.00 0.03 7 1016.3
20181020005319 83 0 21.0 21.0 0.00 0.00 0.03 7 1016.3
20181020004918 84 9 7.0 13.0 0.00 0.00 0.03 7 1016.1
20181020004756 84 42 13.0 14.0 0.00 0.00 0.03 6 1016.3
20181020004517 84 42 13.0 14.0 0.00 0.00 0.03 6 1016.3
20181020004333 84 36 13.0 18.0 0.00 0.00 0.03 6 1016.4
20181020004116 84 36 13.0 18.0 0.00 0.00 0.03 6 1016.4
20181020003715 84 17 7.0 14.0 0.00 0.00 0.03 6 1016.2
20181020003519 84 40 11.0 18.0 0.00 0.00 0.03 6 1016.2
20181020003313 84 40 11.0 18.0 0.00 0.00 0.03 6 1016.2
20181020003059 85 10 16.0 22.0 0.00 0.00 0.03 6 1016.4
20181020002911 85 10 16.0 22.0 0.00 0.00 0.03 6 1016.4
20181020002652 85 9 13.0 20.0 0.00 0.00 0.03 6 1016.2
20181020002510 85 9 13.0 20.0 0.00 0.00 0.03 6 1016.2
20181020002109 85 42 13.0 21.0 0.00 0.00 0.03 6 1016.1
20181020001838 85 10 13.0 16.0 0.00 0.00 0.03 6 1016.3
20181020001708 85 10 13.0 16.0 0.00 0.00 0.03 6 1016.3
20181020001424 85 45 16.0 18.0 0.00 0.00 0.00 6 1016.0
20181020001307 85 45 16.0 18.0 0.00 0.00 0.00 6 1016.0
20181020001047 85 47 16.0 16.0 0.00 0.00 0.00 6 1016.0
20181020000905 85 47 16.0 16.0 0.00 0.00 0.00 6 1016.0
20181020000227 85 2 11.0 18.0 0.00 0.00 0.00 5 1016.2
20181020000102 85 2 11.0 18.0 0.00 0.00 0.00 5 1016.2
20181019235905 85 38 12.0 21.0 0.00 0.00 0.00 5 1016.1
20181019235701 85 38 12.0 21.0 0.00 0.00 0.00 5 1016.1
20181019235053 85 357 19.0 19.0 0.00 0.00 0.00 5 1016.2
20181019234859 85 357 19.0 19.0 0.00 0.00 0.00 5 1016.2
20181019234629 85 38 16.0 20.0 0.00 0.00 0.00 5 1016.4
20181019234457 85 38 16.0 20.0 0.00 0.00 0.00 5 1016.4
20181019234231 85 42 14.0 25.0 0.00 0.00 0.00 5 1016.2
20181019234055 85 42 14.0 25.0 0.00 0.00 0.00 5 1016.2
20181019233838 85 36 16.0 24.0 0.00 0.00 0.00 5 1016.4
20181019233654 85 36 16.0 24.0 0.00 0.00 0.00 5 1016.4
20181019233425 86 24 16.0 25.0 0.00 0.00 0.00 6 1016.5
20181019233253 86 24 16.0 25.0 0.00 0.00 0.00 6 1016.5
20181019233031 86 6 14.0 20.0 0.00 0.00 0.00 6 1016.6
20181019232852 86 6 14.0 20.0 0.00 0.00 0.00 6 1016.6
20181019232451 86 24 13.0 22.0 0.00 0.00 0.00 6 1016.4
20181019232255 86 9 10.0 23.0 0.00 0.00 0.00 6 1016.4
20181019232049 86 9 10.0 23.0 0.00 0.00 0.00 6 1016.4
20181019231921 86 40 23.0 29.0 0.00 0.00 0.00 6 1016.4
20181019231648 86 40 23.0 29.0 0.00 0.00 0.00 6 1016.4
20181019231536 86 25 27.0 29.0 0.00 0.00 0.00 6 1016.5
20181019231246 86 25 27.0 29.0 0.00 0.00 0.00 6 1016.5
20181019231034 86 7 15.0 17.0 0.00 0.00 0.00 6 1016.4
20181019230845 86 7 15.0 17.0 0.00 0.00 0.00 6 1016.4
20181019230640 87 19 10.0 14.0 0.00 0.00 0.00 7 1016.4
20181019230444 87 19 10.0 14.0 0.00 0.00 0.00 7 1016.4
20181019230208 87 24 11.0 12.0 0.00 0.00 0.00 7 1016.4
20181019230043 87 24 11.0 12.0 0.00 0.00 0.00 7 1016.4
20181019225240 87 49 9.0 17.0 0.00 0.00 0.00 8 1016.5
20181019224944 88 67 4.0 12.0 0.00 0.00 0.00 8 1016.3
20181019224839 88 67 4.0 12.0 0.00 0.00 0.00 8 1016.3
20181019224437 88 31 8.0 14.0 0.00 0.00 0.00 8 1016.4
20181019224210 87 346 21.0 28.0 0.00 0.00 0.00 7 1016.5
20181019224110 87 346 21.0 28.0 0.00 0.00 0.00 7 1016.5
20181019224036 87 346 21.0 28.0 0.00 0.00 0.00 7 1016.5
20181019223758 87 5 10.0 11.0 0.00 0.00 0.00 7 1016.6
20181019223635 87 5 10.0 11.0 0.00 0.00 0.00 7 1016.6
20181019223353 87 45 15.0 18.0 0.00 0.00 0.00 8 1016.5
20181019223233 87 45 15.0 18.0 0.00 0.00 0.00 8 1016.5
20181019222940 88 45 14.0 18.0 0.00 0.00 0.00 10 1016.5
20181019222832 88 45 14.0 18.0 0.00 0.00 0.00 10 1016.5
20181019222549 88 18 15.0 15.0 0.00 0.00 0.00 11 1016.4
20181019222431 88 18 15.0 15.0 0.00 0.00 0.00 11 1016.4
20181019222241 88 42 10.0 22.0 0.00 0.00 0.00 10 1016.5
20181019222029 88 42 10.0 22.0 0.00 0.00 0.00 10 1016.5
20181019221900 87 12 18.0 24.0 0.00 0.00 0.00 10 1016.4
20181019221628 87 12 18.0 24.0 0.00 0.00 0.00 10 1016.4
20181019221354 87 333 12.0 17.0 0.00 0.00 0.00 10 1016.5
20181019221227 87 333 12.0 17.0 0.00 0.00 0.00 10 1016.5
20181019221035 87 15 9.0 17.0 0.00 0.00 0.00 10 1016.7
20181019220826 87 15 9.0 17.0 0.00 0.00 0.00 10 1016.7
20181019220622 88 31 12.0 15.0 0.00 0.00 0.00 10 1016.7
20181019220424 88 31 12.0 15.0 0.00 0.00 0.00 10 1016.7
20181019220237 88 63 13.0 21.0 0.00 0.00 0.00 10 1016.7
20181019220023 88 63 13.0 21.0 0.00 0.00 0.00 10 1016.7
20181019215843 87 20 13.0 21.0 0.00 0.00 0.00 10 1016.6
20181019215622 87 20 13.0 21.0 0.00 0.00 0.00 10 1016.6
20181019215325 87 6 20.0 22.0 0.00 0.00 0.00 10 1016.5
20181019215220 87 6 20.0 22.0 0.00 0.00 0.00 10 1016.5
20181019214916 88 353 12.0 13.0 0.00 0.00 0.00 10 1016.5
20181019214819 88 353 12.0 13.0 0.00 0.00 0.00 10 1016.5
20181019214158 88 353 18.0 18.0 0.00 0.00 0.00 10 1016.5
20181019214016 88 353 18.0 18.0 0.00 0.00 0.00 10 1016.5
20181019213750 89 42 15.0 15.0 0.00 0.00 0.00 10 1016.7
20181019213615 89 42 15.0 15.0 0.00 0.00 0.00 10 1016.7
20181019213214 88 36 13.0 16.0 0.00 0.00 0.00 10 1016.8
20181019212940 89 90 4.0 6.0 0.00 0.00 0.00 10 1016.9
20181019212813 89 90 4.0 6.0 0.00 0.00 0.00 10 1016.9
20181019212551 89 78 0.0 13.0 0.00 0.00 0.01 9 1016.8
20181019212411 89 78 0.0 13.0 0.00 0.00 0.01 9 1016.8
20181019212303 89 126 7.0 14.0 0.00 0.00 0.01 8 1016.8
20181019212010 89 126 7.0 14.0 0.00 0.00 0.01 8 1016.8
20181019211800 88 49 10.0 16.0 0.00 0.00 0.01 8 1016.7
20181019211608 88 49 10.0 16.0 0.00 0.00 0.01 8 1016.7
20181019211416 89 303 7.0 7.0 0.00 0.00 0.01 8 1016.8
20181019211207 89 303 7.0 7.0 0.00 0.00 0.01 8 1016.8
20181019210942 89 81 3.0 21.0 0.00 0.00 0.01 9 1017.0
20181019210806 89 81 3.0 21.0 0.00 0.00 0.01 9 1017.0
20181019210556 88 70 4.0 9.0 0.00 0.00 0.01 9 1017.1
20181019210405 88 70 4.0 9.0 0.00 0.00 0.01 9 1017.1
20181019210003 88 101 1.0 24.0 0.00 0.00 0.01 8 1016.9
20181019205805 88 355 18.0 21.0 0.00 0.00 0.01 8 1016.9
20181019205602 88 355 18.0 21.0 0.00 0.00 0.01 8 1016.9
20181019205339 88 29 13.0 20.0 0.00 0.00 0.01 8 1017.0
20181019205200 88 29 13.0 20.0 0.00 0.00 0.01 8 1017.0
20181019204928 87 2 14.0 25.0 0.00 0.00 0.01 8 1017.2
20181019204759 87 2 14.0 25.0 0.00 0.00 0.01 8 1017.2
20181019204533 87 2 16.0 20.0 0.00 0.00 0.01 9 1017.2
20181019204358 87 2 16.0 20.0 0.00 0.00 0.01 9 1017.2
20181019204120 87 0 16.0 21.0 0.00 0.00 0.01 11 1017.0
20181019203957 87 0 16.0 21.0 0.00 0.00 0.01 11 1017.0
20181019203556 88 45 13.0 22.0 0.00 0.00 0.01 11 1017.2
20181019203310 88 10 7.0 15.0 0.00 0.00 0.01 11 1017.3
20181019203155 88 10 7.0 15.0 0.00 0.00 0.01 11 1017.3
20181019203009 88 352 12.0 27.0 0.00 0.00 0.01 10 1017.3
20181019202752 88 352 12.0 27.0 0.00 0.00 0.01 10 1017.3
20181019202621 88 103 9.0 24.0 0.00 0.00 0.01 10 1017.4
20181019202351 88 103 9.0 24.0 0.00 0.00 0.01 10 1017.4
20181019202118 88 129 4.0 13.0 0.00 0.00 0.01 9 1017.4
20181019201950 88 129 4.0 13.0 0.00 0.00 0.01 9 1017.4
20181019201719 88 114 9.0 27.0 0.00 0.00 0.01 9 1017.3
20181019201549 88 114 9.0 27.0 0.00 0.00 0.01 9 1017.3
20181019201325 88 22 4.0 15.0 0.00 0.00 0.01 8 1017.4
20181019201148 88 22 4.0 15.0 0.00 0.00 0.01 8 1017.4
20181019200929 87 351 9.0 22.0 0.00 0.00 0.01 9 1017.6
20181019200746 87 351 9.0 22.0 0.00 0.00 0.01 9 1017.6
20181019200616 87 337 9.0 18.0 0.00 0.00 0.01 9 1017.8
20181019200344 87 337 9.0 18.0 0.00 0.00 0.01 9 1017.8
20181019200127 86 353 16.0 17.0 0.00 0.00 0.01 10 1018.0
20181019195943 86 353 16.0 17.0 0.00 0.00 0.01 10 1018.0
20181019195728 89 11 15.0 15.0 0.00 0.00 0.01 10 1017.8
20181019195542 89 11 15.0 15.0 0.00 0.00 0.01 10 1017.8
20181019195308 89 90 12.0 14.0 0.00 0.00 0.01 10 1017.8
20181019195141 89 90 12.0 14.0 0.00 0.00 0.01 10 1017.8
20181019194740 88 45 2.0 9.0 0.00 0.00 0.01 11 1017.8
20181019194544 89 36 7.0 11.0 0.00 0.00 0.01 11 1017.9
20181019194338 89 36 7.0 11.0 0.00 0.00 0.01 11 1017.9
20181019194137 89 112 5.0 5.0 0.00 0.00 0.01 11 1017.9
20181019193936 89 112 5.0 5.0 0.00 0.00 0.01 11 1017.9
20181019193535 88 117 1.0 9.0 0.00 0.00 0.01 11 1018.0
20181019193134 89 130 7.0 8.0 0.00 0.00 0.01 11 1018.1
20181019192733 88 150 5.0 17.0 0.00 0.00 0.01 12 1018.1
20181019192518 88 72 12.0 12.0 0.00 0.00 0.01 11 1018.1
20181019192332 88 72 12.0 12.0 0.00 0.00 0.01 11 1018.1
20181019192102 87 227 4.0 12.0 0.00 0.00 0.01 11 1018.2
20181019191930 87 227 4.0 12.0 0.00 0.00 0.01 11 1018.2
20181019191717 87 58 3.0 11.0 0.00 0.00 0.01 11 1018.3
20181019191529 87 58 3.0 11.0 0.00 0.00 0.01 11 1018.3
20181019191128 87 353 10.0 11.0 0.00 0.00 0.01 12 1018.4
20181019190914 87 353 1.0 10.0 0.00 0.00 0.01 12 1018.4
20181019190726 87 353 1.0 10.0 0.00 0.00 0.01 12 1018.4
20181019190325 87 24 9.0 9.0 0.00 0.00 0.01 13 1018.4
20181019185924 87 31 6.0 12.0 0.00 0.00 0.01 13 1018.5
20181019185314 87 132 2.0 8.0 0.00 0.00 0.01 14 1018.6
20181019185121 87 132 2.0 8.0 0.00 0.00 0.01 14 1018.6
20181019184842 87 130 3.0 10.0 0.00 0.00 0.01 14 1018.7
20181019184720 87 130 3.0 10.0 0.00 0.00 0.01 14 1018.7
20181019184449 87 99 2.0 9.0 0.00 0.00 0.01 15 1018.6
20181019184318 87 99 2.0 9.0 0.00 0.00 0.01 15 1018.6
20181019184053 87 114 3.0 8.0 0.00 0.00 0.01 15 1018.7
20181019183918 87 114 3.0 8.0 0.00 0.00 0.01 15 1018.7
20181019183658 86 42 4.0 9.0 0.00 0.00 0.01 15 1018.7
20181019183516 86 42 4.0 9.0 0.00 0.00 0.01 15 1018.7
20181019183243 86 47 8.0 8.0 0.00 0.00 0.01 15 1018.8
20181019183114 86 47 8.0 8.0 0.00 0.00 0.01 15 1018.8
20181019182852 86 36 7.0 10.0 0.00 0.00 0.01 16 1018.9
20181019182713 86 36 7.0 10.0 0.00 0.00 0.01 16 1018.9
20181019182312 85 83 6.0 9.0 0.00 0.00 0.01 15 1018.9
20181019181911 85 27 5.0 10.0 0.00 0.00 0.01 16 1018.8
20181019181509 85 42 8.0 11.0 0.00 0.00 0.01 16 1018.9
20181019181243 85 45 7.0 9.0 0.00 0.00 0.01 17 1019.0
20181019181108 85 45 7.0 9.0 0.00 0.00 0.01 17 1019.0
20181019180832 85 65 3.0 9.0 0.00 0.00 0.01 17 1019.0
20181019180707 85 65 3.0 9.0 0.00 0.00 0.01 17 1019.0
20181019180305 85 49 6.0 12.0 0.00 0.00 0.01 17 1019.0
20181019180026 85 51 8.0 10.0 0.00 0.00 0.01 18 1019.0
20181019175904 85 51 8.0 10.0 0.00 0.00 0.01 18 1019.0
20181019175634 85 49 6.0 11.0 0.00 0.00 0.01 19 1019.0
20181019175503 85 49 6.0 11.0 0.00 0.00 0.01 19 1019.0
20181019175242 85 27 4.0 8.0 0.00 0.00 0.01 19 1019.1
20181019175101 85 27 4.0 8.0 0.00 0.00 0.01 19 1019.1
20181019174844 85 35 4.0 11.0 0.00 0.00 0.01 19 1019.1
20181019174700 85 35 4.0 11.0 0.00 0.00 0.01 19 1019.1
20181019174424 85 355 10.0 10.0 0.00 0.00 0.01 20 1019.2
20181019174259 85 355 10.0 10.0 0.00 0.00 0.01 20 1019.2
20181019174040 84 38 7.0 12.0 0.00 0.00 0.01 20 1019.2
20181019173857 84 38 7.0 12.0 0.00 0.00 0.01 20 1019.2
20181019173642 84 33 11.0 15.0 0.00 0.00 0.01 22 1019.2
20181019173456 84 33 11.0 15.0 0.00 0.00 0.01 22 1019.2
20181019172836 82 317 1.0 6.0 0.00 0.00 0.01 23 1019.2
20181019172653 82 317 1.0 6.0 0.00 0.00 0.01 23 1019.2
20181019172437 82 351 5.0 12.0 0.00 0.00 0.01 23 1019.4
20181019172252 82 351 5.0 12.0 0.00 0.00 0.01 23 1019.4
20181019171954 82 303 5.0 7.0 0.00 0.00 0.01 24 1019.4
20181019171851 82 303 5.0 7.0 0.00 0.00 0.01 24 1019.4
20181019171611 81 355 6.0 9.0 0.00 0.00 0.01 24 1019.5
20181019171449 81 355 6.0 9.0 0.00 0.00 0.01 24 1019.5
20181019171048 81 346 7.0 8.0 0.00 0.00 0.01 25 1019.5
20181019170757 81 330 6.0 9.0 0.00 0.00 0.01 26 1019.5
20181019170647 81 330 6.0 9.0 0.00 0.00 0.01 26 1019.5
20181019170246 80 315 3.0 12.0 0.00 0.00 0.01 27 1019.6
20181019170020 80 355 5.0 6.0 0.00 0.00 0.01 27 1019.6
20181019165851 80 355 5.0 6.0 0.00 0.00 0.01 27 1019.6
20181019165844 80 355 5.0 6.0 0.00 0.00 0.01 27 1019.6
20181019165250 80 328 4.0 5.0 0.00 0.00 0.01 28 1019.7
20181019165041 80 328 4.0 5.0 0.00 0.00 0.01 28 1019.7
20181019164838 80 47 2.0 3.0 0.00 0.00 0.01 28 1019.6
20181019164640 80 47 2.0 3.0 0.00 0.00 0.01 28 1019.6
20181019164440 80 292 2.0 4.0 0.00 0.00 0.01 28 1019.7
20181019164239 80 292 2.0 4.0 0.00 0.00 0.01 28 1019.7
20181019163952 79 218 4.0 5.0 0.00 0.00 0.01 28 1019.7
20181019163838 79 218 4.0 5.0 0.00 0.00 0.01 28 1019.7
20181019163241 78 247 1.0 7.0 0.00 0.00 0.01 28 1019.7
20181019163035 78 247 1.0 7.0 0.00 0.00 0.01 28 1019.7
20181019162817 79 183 1.0 6.0 0.00 0.00 0.01 29 1019.8
20181019162633 79 183 1.0 6.0 0.00 0.00 0.01 29 1019.8
20181019162427 78 232 1.0 4.0 0.00 0.00 0.01 29 1019.8
20181019162232 78 232 1.0 4.0 0.00 0.00 0.01 29 1019.8
20181019161953 77 297 4.0 6.0 0.00 0.00 0.01 29 1019.9
20181019161831 77 297 4.0 6.0 0.00 0.00 0.01 29 1019.9
20181019161430 77 263 5.0 7.0 0.00 0.00 0.01 29 1019.9
20181019161029 76 270 4.0 7.0 0.00 0.00 0.01 30 1019.9
20181019160850 76 274 2.0 4.0 0.00 0.00 0.01 30 1019.9
20181019160627 76 274 2.0 4.0 0.00 0.00 0.01 30 1019.9
20181019160345 76 227 1.0 4.0 0.00 0.00 0.01 30 1020.0
20181019160225 76 227 1.0 4.0 0.00 0.00 0.01 30 1020.0
20181019160002 76 351 0.0 5.0 0.00 0.00 0.01 30 1020.0
20181019155828 76 351 0.0 5.0 0.00 0.00 0.01 30 1020.0
20181019155824 76 351 0.0 5.0 0.00 0.00 0.01 30 1020.0
20181019155556 75 290 0.0 3.0 0.00 0.00 0.01 30 1020.0
20181019155423 75 290 0.0 3.0 0.00 0.00 0.01 30 1020.0
20181019155146 75 279 1.0 2.0 0.00 0.00 0.01 30 1019.8
20181019155022 75 279 1.0 2.0 0.00 0.00 0.01 30 1019.8
20181019154747 74 245 2.0 3.0 0.00 0.00 0.01 31 1019.8
20181019154621 74 245 2.0 3.0 0.00 0.00 0.01 31 1019.8
20181019154330 73 252 2.0 3.0 0.00 0.00 0.01 31 1019.7
20181019154219 73 252 2.0 3.0 0.00 0.00 0.01 31 1019.7
20181019153950 73 297 1.0 4.0 0.00 0.00 0.01 31 1019.7
20181019153817 73 297 1.0 4.0 0.00 0.00 0.01 31 1019.7
20181019153416 72 0 0.0 6.0 0.00 0.00 0.01 31 1019.7
20181019153211 72 328 1.0 5.0 0.00 0.00 0.01 31 1019.5
20181019153015 72 328 1.0 5.0 0.00 0.00 0.01 31 1019.5
20181019152745 71 240 2.0 4.0 0.00 0.00 0.01 32 1019.6
20181019152614 71 240 2.0 4.0 0.00 0.00 0.01 32 1019.6
20181019152213 70 221 0.0 4.0 0.00 0.00 0.01 32 1019.6
20181019151951 70 186 2.0 5.0 0.00 0.00 0.01 32 1019.6
20181019151811 70 186 2.0 5.0 0.00 0.00 0.01 32 1019.6
20181019151557 69 270 2.0 4.0 0.00 0.00 0.01 32 1019.5
20181019151410 69 270 2.0 4.0 0.00 0.00 0.01 32 1019.5
20181019151217 69 183 2.0 4.0 0.00 0.00 0.01 32 1019.4
20181019151008 69 183 2.0 4.0 0.00 0.00 0.01 32 1019.4
20181019150742 68 267 3.0 6.0 0.00 0.00 0.01 32 1019.5
20181019150607 68 267 3.0 6.0 0.00 0.00 0.01 32 1019.5
20181019150320 67 200 5.0 5.0 0.00 0.00 0.01 32 1019.4
20181019150206 67 200 5.0 5.0 0.00 0.00 0.01 32 1019.4
20181019145805 67 202 1.0 3.0 0.00 0.00 0.01 32 1019.4
20181019145518 67 285 0.0 6.0 0.00 0.00 0.01 33 1019.4
20181019145403 67 285 0.0 6.0 0.00 0.00 0.01 33 1019.4
20181019145142 66 211 4.0 5.0 0.00 0.00 0.01 33 1019.3
20181019145002 66 211 4.0 5.0 0.00 0.00 0.01 33 1019.3
20181019144327 65 274 2.0 4.0 0.00 0.00 0.01 33 1019.3
20181019144159 65 274 2.0 4.0 0.00 0.00 0.01 33 1019.3
20181019143758 64 312 1.0 4.0 0.00 0.00 0.01 33 1019.2
20181019143541 64 256 3.0 5.0 0.00 0.00 0.01 33 1019.2
20181019143357 64 256 3.0 5.0 0.00 0.00 0.01 33 1019.2
20181019143118 64 222 3.0 5.0 0.00 0.00 0.01 33 1019.1
20181019142955 64 222 3.0 5.0 0.00 0.00 0.01 33 1019.1
20181019142153 64 270 2.0 8.0 0.00 0.00 0.01 33 1019.1
20181019141924 63 290 4.0 4.0 0.00 0.00 0.01 34 1019.0
20181019141751 63 290 4.0 4.0 0.00 0.00 0.01 34 1019.0
20181019141134 61 207 0.0 4.0 0.00 0.00 0.01 34 1019.0
20181019140943 61 207 0.0 4.0 0.00 0.00 0.01 34 1019.0
20181019140327 61 225 2.0 7.0 0.00 0.00 0.01 34 1019.0
20181019140140 61 225 2.0 7.0 0.00 0.00 0.01 34 1019.0
20181019135920 61 225 3.0 5.0 0.00 0.00 0.01 34 1019.0
20181019135739 61 225 3.0 5.0 0.00 0.00 0.01 34 1019.0
20181019135338 62 218 0.0 7.0 0.00 0.00 0.01 34 1018.9
20181019135133 62 290 1.0 5.0 0.00 0.00 0.01 34 1018.9
20181019134936 62 290 1.0 5.0 0.00 0.00 0.01 34 1018.9
20181019134656 62 315 3.0 7.0 0.00 0.00 0.01 35 1018.9
20181019134535 62 315 3.0 7.0 0.00 0.00 0.01 35 1018.9
20181019133732 60 272 1.0 4.0 0.00 0.00 0.01 35 1018.9
20181019133331 60 213 2.0 4.0 0.00 0.00 0.01 35 1018.9
20181019133148 59 213 3.0 6.0 0.00 0.00 0.01 35 1018.8
20181019132930 59 213 3.0 6.0 0.00 0.00 0.01 35 1018.8
20181019132715 59 243 3.0 3.0 0.00 0.00 0.01 36 1018.8
20181019132528 59 243 3.0 3.0 0.00 0.00 0.01 36 1018.8
20181019132349 59 0 0.0 3.0 0.00 0.00 0.01 36 1018.8
20181019132129 59 0 0.0 3.0 0.00 0.00 0.01 36 1018.8
20181019132127 59 0 0.0 3.0 0.00 0.00 0.01 36 1018.8
20181019131915 59 274 0.0 5.0 0.00 0.00 0.01 36 1018.8
20181019131726 59 274 0.0 5.0 0.00 0.00 0.01 36 1018.8
20181019131525 59 333 2.0 5.0 0.00 0.00 0.01 36 1018.7
20181019131324 59 333 2.0 5.0 0.00 0.00 0.01 36 1018.7
20181019131138 59 225 3.0 4.0 0.00 0.00 0.01 36 1018.7
20181019130926 59 225 3.0 4.0 0.00 0.00 0.01 36 1018.7
20181019130923 59 225 3.0 4.0 0.00 0.00 0.01 36 1018.7
20181019130728 58 218 0.0 5.0 0.00 0.00 0.01 36 1018.7
20181019130531 58 218 0.0 5.0 0.00 0.00 0.01 36 1018.7
20181019130522 58 218 0.0 5.0 0.00 0.00 0.01 36 1018.7
20181019130414 58 202 1.0 6.0 0.00 0.00 0.01 37 1018.8
20181019130121 58 202 1.0 6.0 0.00 0.00 0.01 37 1018.8
20181019125922 57 281 1.0 4.0 0.00 0.00 0.01 37 1018.8
20181019125719 57 281 1.0 4.0 0.00 0.00 0.01 37 1018.8
20181019125520 57 270 1.0 3.0 0.00 0.00 0.01 37 1018.7
20181019125320 57 270 1.0 3.0 0.00 0.00 0.01 37 1018.7
20181019125318 57 270 1.0 3.0 0.00 0.00 0.01 37 1018.7
20181019125126 57 166 2.0 3.0 0.00 0.00 0.01 37 1018.8
20181019124921 57 166 2.0 3.0 0.00 0.00 0.01 37 1018.8
20181019124916 57 166 2.0 3.0 0.00 0.00 0.01 37 1018.8
20181019124731 56 290 2.0 4.0 0.00 0.00 0.01 37 1018.7
20181019124515 56 290 2.0 4.0 0.00 0.00 0.01 37 1018.7
20181019124238 56 279 3.0 3.0 0.00 0.00 0.01 37 1018.7
20181019124118 56 279 3.0 3.0 0.00 0.00 0.01 37 1018.7
20181019124114 56 279 3.0 3.0 0.00 0.00 0.01 37 1018.7
20181019123835 56 204 2.0 4.0 0.00 0.00 0.01 37 1018.7
20181019123717 56 204 2.0 4.0 0.00 0.00 0.01 37 1018.7
20181019123713 56 204 2.0 4.0 0.00 0.00 0.01 37 1018.7
20181019123434 56 236 1.0 4.0 0.00 0.00 0.01 37 1018.6
20181019123311 56 236 1.0 4.0 0.00 0.00 0.01 37 1018.6
20181019123120 54 319 3.0 4.0 0.00 0.00 0.01 37 1018.7
20181019122910 54 319 3.0 4.0 0.00 0.00 0.01 37 1018.7
20181019122611 54 180 4.0 4.0 0.00 0.00 0.01 37 1018.7
20181019122508 54 180 4.0 4.0 0.00 0.00 0.01 37 1018.7
20181019122107 54 234 2.0 3.0 0.00 0.00 0.01 37 1018.7
20181019121706 53 300 0.0 4.0 0.00 0.00 0.01 37 1018.8
20181019121305 53 225 1.0 3.0 0.00 0.00 0.01 37 1018.7
20181019121050 53 279 0.0 3.0 0.00 0.00 0.01 38 1018.6
20181019120910 53 279 0.0 3.0 0.00 0.00 0.01 38 1018.6
20181019120904 53 279 0.0 3.0 0.00 0.00 0.01 38 1018.6
20181019120709 53 189 2.0 2.0 0.00 0.00 0.01 38 1018.6
20181019120504 53 189 2.0 2.0 0.00 0.00 0.01 38 1018.6
20181019120259 53 276 3.0 4.0 0.00 0.00 0.01 38 1018.6
20181019120100 53 276 3.0 4.0 0.00 0.00 0.01 38 1018.6
20181019115659 52 218 2.0 3.0 0.00 0.00 0.01 38 1018.5
20181019115440 52 0 3.0 4.0 0.00 0.00 0.01 38 1018.6
20181019115258 52 0 3.0 4.0 0.00 0.00 0.01 38 1018.6
20181019115056 51 121 0.0 3.0 0.00 0.00 0.01 37 1018.5
20181019114857 51 121 0.0 3.0 0.00 0.00 0.01 37 1018.5
20181019114734 51 180 2.0 2.0 0.00 0.00 0.01 38 1018.6
20181019114458 51 180 2.0 2.0 0.00 0.00 0.01 38 1018.6
20181019114456 51 180 2.0 2.0 0.00 0.00 0.01 38 1018.6
20181019114336 51 225 2.0 3.0 0.00 0.00 0.01 38 1018.6
20181019114054 51 225 2.0 3.0 0.00 0.00 0.01 38 1018.6
20181019113831 51 90 1.0 5.0 0.00 0.00 0.01 38 1018.5
20181019113655 51 90 1.0 5.0 0.00 0.00 0.01 38 1018.5
20181019113652 51 90 1.0 5.0 0.00 0.00 0.01 38 1018.5
20181019113444 51 222 3.0 3.0 0.00 0.00 0.01 38 1018.5
20181019113251 51 222 3.0 3.0 0.00 0.00 0.01 38 1018.5
20181019113045 50 0 0.0 2.0 0.00 0.00 0.01 38 1018.5
20181019112850 50 0 0.0 2.0 0.00 0.00 0.01 38 1018.5
20181019112616 50 225 2.0 2.0 0.00 0.00 0.01 38 1018.4
20181019112449 50 225 2.0 2.0 0.00 0.00 0.01 38 1018.4
20181019112303 50 90 2.0 3.0 0.00 0.00 0.01 37 1018.5
20181019112048 50 90 2.0 3.0 0.00 0.00 0.01 37 1018.5
20181019111815 50 222 0.0 3.0 0.00 0.00 0.01 37 1018.5
20181019111646 50 222 0.0 3.0 0.00 0.00 0.01 37 1018.5
20181019111447 50 45 0.0 3.0 0.00 0.00 0.01 37 1018.5
20181019111244 50 45 0.0 3.0 0.00 0.00 0.01 37 1018.5
20181019111028 50 225 0.0 4.0 0.00 0.00 0.01 37 1018.5
20181019110845 50 225 0.0 4.0 0.00 0.00 0.01 37 1018.5
20181019110843 50 225 0.0 4.0 0.00 0.00 0.01 37 1018.5
20181019110630 50 234 1.0 2.0 0.00 0.00 0.01 37 1018.5
20181019110442 50 234 1.0 2.0 0.00 0.00 0.01 37 1018.5
20181019110242 50 315 1.0 2.0 0.00 0.00 0.01 37 1018.6
20181019110041 50 315 1.0 2.0 0.00 0.00 0.01 37 1018.6
20181019105856 50 225 1.0 3.0 0.00 0.00 0.01 37 1018.4
20181019105640 50 225 1.0 3.0 0.00 0.00 0.01 37 1018.4
20181019105448 50 315 0.0 2.0 0.00 0.00 0.01 37 1018.5
20181019105238 50 315 0.0 2.0 0.00 0.00 0.01 37 1018.5
20181019105052 50 0 0.0 4.0 0.00 0.00 0.01 37 1018.5
20181019104836 50 0 0.0 4.0 0.00 0.00 0.01 37 1018.5
20181019104636 50 225 1.0 2.0 0.00 0.00 0.01 37 1018.5
20181019104435 50 225 1.0 2.0 0.00 0.00 0.01 37 1018.5
20181019104336 50 0 0.0 2.0 0.00 0.00 0.01 37 1018.5
20181019104034 50 0 0.0 2.0 0.00 0.00 0.01 37 1018.5
20181019103803 50 225 0.0 3.0 0.00 0.00 0.01 37 1018.6
20181019103705 50 225 0.0 3.0 0.00 0.00 0.01 37 1018.6
20181019103633 50 225 0.0 3.0 0.00 0.00 0.01 37 1018.6
20181019103232 50 227 0.0 2.0 0.00 0.00 0.01 37 1018.6
20181019103100 50 0 0.0 1.0 0.00 0.00 0.01 36 1018.5
20181019102830 50 0 0.0 1.0 0.00 0.00 0.01 36 1018.5
20181019102429 50 270 1.0 1.0 0.00 0.00 0.01 36 1018.6
20181019102223 50 0 0.0 1.0 0.00 0.00 0.01 36 1018.7
20181019102037 50 0 0.0 1.0 0.00 0.00 0.01 36 1018.7
20181019102027 50 0 0.0 1.0 0.00 0.00 0.01 36 1018.7
20181019101745 50 45 0.0 2.0 0.00 0.00 0.01 36 1018.7
20181019101626 50 45 0.0 2.0 0.00 0.00 0.01 36 1018.7
20181019101401 50 261 2.0 2.0 0.00 0.00 0.01 36 1018.7
20181019101225 50 261 2.0 2.0 0.00 0.00 0.01 36 1018.7
20181019101034 50 351 0.0 2.0 0.00 0.00 0.01 36 1018.7
20181019100824 50 351 0.0 2.0 0.00 0.00 0.01 36 1018.7
20181019100633 50 270 0.0 1.0 0.00 0.00 0.01 36 1018.9
20181019100422 50 270 0.0 1.0 0.00 0.00 0.01 36 1018.9
20181019100143 50 90 0.0 3.0 0.00 0.00 0.01 36 1018.9
20181019100021 50 90 0.0 3.0 0.00 0.00 0.01 36 1018.9
20181019095752 51 270 0.0 2.0 0.00 0.00 0.01 36 1018.8
20181019095620 51 270 0.0 2.0 0.00 0.00 0.01 36 1018.8
20181019095443 51 270 1.0 1.0 0.00 0.00 0.01 36 1018.9
20181019095218 51 270 1.0 1.0 0.00 0.00 0.01 36 1018.9
20181019094817 51 312 2.0 3.0 0.00 0.00 0.01 36 1018.9
20181019094638 51 90 0.0 2.0 0.00 0.00 0.01 36 1019.0
20181019094419 51 90 0.0 2.0 0.00 0.00 0.01 36 1019.0
20181019094416 51 90 0.0 2.0 0.00 0.00 0.01 36 1019.0
20181019094242 51 238 1.0 3.0 0.00 0.00 0.01 36 1018.9
20181019094017 51 238 1.0 3.0 0.00 0.00 0.01 36 1018.9
20181019094014 51 238 1.0 3.0 0.00 0.00 0.01 36 1018.9
20181019093801 51 180 1.0 2.0 0.00 0.00 0.01 35 1019.0
20181019093613 51 180 1.0 2.0 0.00 0.00 0.01 35 1019.0
20181019093212 51 216 2.0 3.0 0.00 0.00 0.01 35 1019.0
20181019092936 51 308 0.0 2.0 0.00 0.00 0.01 35 1019.1
20181019092810 51 308 0.0 2.0 0.00 0.00 0.01 35 1019.1
20181019092553 51 225 0.0 2.0 0.00 0.00 0.01 35 1018.9
20181019092409 51 225 0.0 2.0 0.00 0.00 0.01 35 1018.9
20181019092215 51 353 0.0 0.0 0.00 0.00 0.01 35 1019.1
20181019092011 51 353 0.0 0.0 0.00 0.00 0.01 35 1019.1
20181019092008 51 353 0.0 0.0 0.00 0.00 0.01 35 1019.1
20181019091735 51 0 0.0 1.0 0.00 0.00 0.01 35 1019.1
20181019091607 51 0 0.0 1.0 0.00 0.00 0.01 35 1019.1
20181019091352 51 22 0.0 2.0 0.00 0.00 0.01 35 1019.1
20181019091205 51 22 0.0 2.0 0.00 0.00 0.01 35 1019.1
20181019090929 51 180 1.0 2.0 0.00 0.00 0.01 35 1019.0
20181019090804 51 180 1.0 2.0 0.00 0.00 0.01 35 1019.0
20181019090001 51 319 2.0 3.0 0.00 0.00 0.01 34 1019.3
20181019085727 51 270 3.0 3.0 0.00 0.00 0.01 34 1019.2
20181019085600 51 270 3.0 3.0 0.00 0.00 0.01 34 1019.2
20181019085358 51 315 0.0 2.0 0.00 0.00 0.01 34 1019.2
20181019085159 51 315 0.0 2.0 0.00 0.00 0.01 34 1019.2
20181019084941 52 270 0.0 0.0 0.00 0.00 0.01 34 1019.1
20181019084800 52 270 0.0 0.0 0.00 0.00 0.01 34 1019.1
20181019084757 52 270 0.0 0.0 0.00 0.00 0.01 34 1019.1
20181019084356 52 135 0.0 2.0 0.00 0.00 0.01 34 1019.1
20181019084214 52 270 0.0 2.0 0.00 0.00 0.01 34 1019.1
20181019084047 52 270 0.0 2.0 0.00 0.00 0.01 34 1019.1
20181019083955 52 270 0.0 2.0 0.00 0.00 0.01 34 1019.1
20181019083734 52 315 0.0 3.0 0.00 0.00 0.01 34 1019.1
20181019083553 52 315 0.0 3.0 0.00 0.00 0.01 34 1019.1
20181019083357 52 256 1.0 2.0 0.00 0.00 0.01 33 1019.1
20181019083152 52 256 1.0 2.0 0.00 0.00 0.01 33 1019.1
20181019083030 52 270 2.0 2.0 0.00 0.00 0.01 33 1019.2
20181019082751 52 270 2.0 2.0 0.00 0.00 0.01 33 1019.2
20181019082558 52 315 1.0 1.0 0.00 0.00 0.01 33 1019.2
20181019082349 52 315 1.0 1.0 0.00 0.00 0.01 33 1019.2
20181019082206 52 240 0.0 1.0 0.00 0.00 0.01 33 1019.2
20181019081948 52 240 0.0 1.0 0.00 0.00 0.01 33 1019.2
20181019081720 52 238 1.0 3.0 0.00 0.00 0.01 33 1019.2
20181019081554 52 238 1.0 3.0 0.00 0.00 0.01 33 1019.2
20181019081547 52 238 1.0 3.0 0.00 0.00 0.01 33 1019.2
20181019081307 53 2 0.0 2.0 0.00 0.00 0.01 33 1019.1
20181019081146 53 2 0.0 2.0 0.00 0.00 0.01 33 1019.1
20181019080949 53 225 0.0 3.0 0.00 0.00 0.01 33 1019.2
20181019080744 53 225 0.0 3.0 0.00 0.00 0.01 33 1019.2
20181019080559 53 0 1.0 2.0 0.00 0.00 0.01 32 1019.1
20181019080343 53 0 1.0 2.0 0.00 0.00 0.01 32 1019.1
20181019080201 53 315 0.0 1.0 0.00 0.00 0.01 32 1019.2
20181019075941 53 315 0.0 1.0 0.00 0.00 0.01 32 1019.2
20181019075719 53 90 0.0 0.0 0.00 0.00 0.01 32 1019.2
20181019075540 53 90 0.0 0.0 0.00 0.00 0.01 32 1019.2
20181019075343 53 296 0.0 1.0 0.00 0.00 0.01 32 1019.2
20181019075139 53 296 0.0 1.0 0.00 0.00 0.01 32 1019.2
20181019075000 53 0 0.0 4.0 0.00 0.00 0.01 32 1019.2
20181019074738 53 0 0.0 4.0 0.00 0.00 0.01 32 1019.2
20181019074603 53 4 0.0 1.0 0.00 0.00 0.01 32 1019.1
20181019074337 53 4 0.0 1.0 0.00 0.00 0.01 32 1019.1
20181019073935 54 225 0.0 2.0 0.00 0.00 0.01 32 1019.1
20181019073724 54 270 2.0 3.0 0.00 0.00 0.01 32 1019.2
20181019073533 54 270 2.0 3.0 0.00 0.00 0.01 32 1019.2
20181019073357 54 270 0.0 2.0 0.00 0.00 0.01 32 1019.1
20181019073132 54 270 0.0 2.0 0.00 0.00 0.01 32 1019.1
20181019073016 54 18 0.0 1.0 0.00 0.00 0.01 31 1019.2
20181019072731 54 18 0.0 1.0 0.00 0.00 0.01 31 1019.2
20181019072625 54 315 0.0 2.0 0.00 0.00 0.01 31 1019.2
20181019072330 54 315 0.0 2.0 0.00 0.00 0.01 31 1019.2
20181019072259 54 252 0.0 2.0 0.00 0.00 0.01 31 1019.2
20181019071943 54 38 0.0 1.0 0.00 0.00 0.01 31 1019.2
20181019071934 54 252 0.0 2.0 0.00 0.00 0.01 31 1019.2
20181019071929 54 252 0.0 2.0 0.00 0.00 0.01 31 1019.2
20181019071812 54 38 0.0 1.0 0.00 0.00 0.01 31 1019.2
20181019071724 54 38 0.0 1.0 0.00 0.00 0.01 31 1019.2
20181019071533 54 38 0.0 1.0 0.00 0.00 0.01 31 1019.2
20181019071528 54 38 0.0 1.0 0.00 0.00 0.01 31 1019.2
20181019071125 54 135 0.0 3.0 0.00 0.00 0.01 31 1019.2
20181019071011 55 180 0.0 2.0 0.00 0.00 0.01 31 1019.1
20181019070724 55 180 0.0 2.0 0.00 0.00 0.01 31 1019.1
20181019070628 55 45 0.0 2.0 0.00 0.00 0.01 31 1019.2
20181019070323 55 45 0.0 2.0 0.00 0.00 0.01 31 1019.2
20181019070225 55 45 0.0 2.0 0.00 0.00 0.01 30 1019.2
20181019065922 55 45 0.0 2.0 0.00 0.00 0.01 30 1019.2
20181019065521 55 189 0.0 2.0 0.00 0.00 0.01 30 1019.2
20181019064858 56 218 0.0 1.0 0.00 0.00 0.01 30 1019.2
20181019064724 56 218 0.0 1.0 0.00 0.00 0.01 30 1019.2
20181019064717 56 218 0.0 1.0 0.00 0.00 0.01 30 1019.2
20181019064427 56 180 0.0 1.0 0.00 0.00 0.01 30 1019.4
20181019064316 56 180 0.0 1.0 0.00 0.00 0.01 30 1019.4
20181019064205 56 180 0.0 1.0 0.00 0.00 0.01 30 1019.3
20181019063915 56 180 0.0 1.0 0.00 0.00 0.01 30 1019.3
20181019063648 57 225 0.0 1.0 0.00 0.00 0.01 30 1019.3
20181019063514 57 225 0.0 1.0 0.00 0.00 0.01 30 1019.3
20181019063257 57 270 1.0 1.0 0.00 0.00 0.01 30 1019.3
20181019063113 57 270 1.0 1.0 0.00 0.00 0.01 30 1019.3
20181019062907 57 270 0.0 3.0 0.00 0.00 0.01 29 1019.3
20181019062711 57 270 0.0 3.0 0.00 0.00 0.01 29 1019.3
20181019062537 57 270 2.0 2.0 0.00 0.00 0.01 29 1019.3
20181019062309 57 270 2.0 2.0 0.00 0.00 0.01 29 1019.3
20181019062136 57 315 0.0 1.0 0.00 0.00 0.01 29 1019.3
20181019061908 57 315 0.0 1.0 0.00 0.00 0.01 29 1019.3
20181019061646 57 297 1.0 2.0 0.00 0.00 0.01 29 1019.4
20181019061510 57 297 1.0 2.0 0.00 0.00 0.01 29 1019.4
20181019061507 57 297 1.0 2.0 0.00 0.00 0.01 29 1019.4
20181019061302 57 270 0.0 0.0 0.00 0.00 0.01 28 1019.4
20181019061106 57 270 0.0 0.0 0.00 0.00 0.01 28 1019.4
20181019060921 58 315 0.0 2.0 0.00 0.00 0.01 28 1019.4
20181019060705 58 315 0.0 2.0 0.00 0.00 0.01 28 1019.4
20181019060514 58 270 0.0 1.0 0.00 0.00 0.01 28 1019.3
20181019060303 58 270 0.0 1.0 0.00 0.00 0.01 28 1019.3
20181019060036 58 270 0.0 0.0 0.00 0.00 0.01 28 1019.3
20181019055902 58 270 0.0 0.0 0.00 0.00 0.01 28 1019.3
20181019055053 58 315 0.0 1.0 0.00 0.00 0.01 28 1019.3
20181019054652 58 225 0.0 1.0 0.00 0.00 0.01 28 1019.3
20181019054415 58 225 1.0 2.0 0.00 0.00 0.01 28 1019.5
20181019054251 58 225 1.0 2.0 0.00 0.00 0.01 28 1019.5
20181019054025 58 0 1.0 2.0 0.00 0.00 0.01 28 1019.4
20181019053849 58 0 1.0 2.0 0.00 0.00 0.01 28 1019.4
20181019053046 59 283 0.0 2.0 0.00 0.00 0.01 27 1019.4
20181019052818 59 247 1.0 4.0 0.00 0.00 0.01 27 1019.4
20181019052645 59 247 1.0 4.0 0.00 0.00 0.01 27 1019.4
20181019052448 59 0 3.0 3.0 0.00 0.00 0.01 27 1019.3
20181019052244 59 0 3.0 3.0 0.00 0.00 0.01 27 1019.3
20181019052053 60 236 0.0 1.0 0.00 0.00 0.01 27 1019.3
20181019051843 60 236 0.0 1.0 0.00 0.00 0.01 27 1019.3
20181019051623 60 333 0.0 5.0 0.00 0.00 0.01 27 1019.3
20181019051442 60 333 0.0 5.0 0.00 0.00 0.01 27 1019.3
20181019051040 60 199 2.0 3.0 0.00 0.00 0.01 26 1019.2
20181019050838 60 6 1.0 2.0 0.00 0.00 0.01 26 1019.4
20181019050639 60 6 1.0 2.0 0.00 0.00 0.01 26 1019.4
20181019050419 60 220 1.0 3.0 0.00 0.00 0.01 26 1019.2
20181019050237 60 220 1.0 3.0 0.00 0.00 0.01 26 1019.2
20181019045836 60 270 3.0 3.0 0.00 0.00 0.01 26 1019.2
20181019045435 60 270 3.0 5.0 0.00 0.00 0.01 25 1019.3
20181019045253 60 310 3.0 4.0 0.00 0.00 0.01 25 1019.4
20181019045035 60 310 3.0 4.0 0.00 0.00 0.01 25 1019.4
20181019044743 61 272 2.0 3.0 0.00 0.00 0.01 25 1019.3
20181019044632 61 272 2.0 3.0 0.00 0.00 0.01 25 1019.3
20181019044231 61 263 2.0 3.0 0.00 0.00 0.01 25 1019.2
20181019044032 62 283 1.0 1.0 0.00 0.00 0.01 24 1019.2
20181019043829 62 283 1.0 1.0 0.00 0.00 0.01 24 1019.2
20181019043428 62 207 1.0 1.0 0.00 0.00 0.01 24 1019.1
20181019043211 62 67 0.0 1.0 0.00 0.00 0.01 24 1019.2
20181019043027 62 67 0.0 1.0 0.00 0.00 0.01 24 1019.2
20181019042451 63 270 0.0 1.0 0.00 0.00 0.01 24 1019.1
20181019042224 63 270 0.0 1.0 0.00 0.00 0.01 24 1019.1
20181019041823 63 294 1.0 2.0 0.00 0.00 0.01 23 1019.1
20181019041643 63 315 1.0 3.0 0.00 0.00 0.01 23 1019.1
20181019041422 63 315 1.0 3.0 0.00 0.00 0.01 23 1019.1
20181019041240 64 310 2.0 3.0 0.00 0.00 0.01 23 1019.0
20181019041020 64 310 2.0 3.0 0.00 0.00 0.01 23 1019.0
20181019040722 64 315 0.0 1.0 0.00 0.00 0.01 23 1019.0
20181019040619 64 315 0.0 1.0 0.00 0.00 0.01 23 1019.0
20181019040357 64 315 1.0 1.0 0.00 0.00 0.01 22 1019.0
20181019040218 64 315 1.0 1.0 0.00 0.00 0.01 22 1019.0
20181019040015 64 315 1.0 1.0 0.00 0.00 0.01 22 1019.0
20181019035816 64 315 1.0 1.0 0.00 0.00 0.01 22 1019.0
20181019035625 65 315 1.0 3.0 0.00 0.00 0.01 22 1019.0
20181019035415 65 315 1.0 3.0 0.00 0.00 0.01 22 1019.0
20181019035014 64 270 2.0 3.0 0.00 0.00 0.01 22 1019.0
20181019034830 66 326 3.0 3.0 0.00 0.00 0.01 21 1019.0
20181019034612 66 326 3.0 3.0 0.00 0.00 0.01 21 1019.0
20181019034414 67 315 3.0 3.0 0.00 0.00 0.01 21 1019.0
20181019034211 67 315 3.0 3.0 0.00 0.00 0.01 21 1019.0
20181019033947 67 276 2.0 3.0 0.00 0.00 0.01 21 1019.0
20181019033810 67 276 2.0 3.0 0.00 0.00 0.01 21 1019.0
20181019033551 67 270 1.0 2.0 0.00 0.00 0.01 21 1019.0
20181019033440 67 270 1.0 2.0 0.00 0.00 0.01 21 1019.0
20181019033408 67 270 1.0 2.0 0.00 0.00 0.01 21 1019.0
20181019033138 67 270 0.0 2.0 0.00 0.00 0.01 21 1019.0
20181019033007 67 270 0.0 2.0 0.00 0.00 0.01 21 1019.0
20181019032750 68 272 3.0 3.0 0.00 0.00 0.01 20 1018.9
20181019032607 68 272 3.0 3.0 0.00 0.00 0.01 20 1018.9
20181019032352 68 270 3.0 4.0 0.00 0.00 0.01 20 1018.9
20181019032205 68 270 3.0 4.0 0.00 0.00 0.01 20 1018.9
20181019032020 68 292 4.0 4.0 0.00 0.00 0.01 20 1018.8
20181019031927 68 292 4.0 4.0 0.00 0.00 0.01 20 1018.8
20181019031804 68 292 4.0 4.0 0.00 0.00 0.01 20 1018.8
20181019031624 68 308 4.0 4.0 0.00 0.00 0.01 20 1018.9
20181019031411 68 308 4.0 4.0 0.00 0.00 0.01 20 1018.9
20181019031402 68 308 4.0 4.0 0.00 0.00 0.01 20 1018.9
20181019031000 68 256 4.0 7.0 0.00 0.00 0.01 20 1018.8
20181019030750 69 270 4.0 4.0 0.00 0.00 0.01 20 1018.8
20181019030559 69 270 4.0 4.0 0.00 0.00 0.01 20 1018.8
20181019030338 69 276 3.0 4.0 0.00 0.00 0.01 20 1018.8
20181019030158 69 276 3.0 4.0 0.00 0.00 0.01 20 1018.8
20181019025909 69 288 2.0 3.0 0.00 0.00 0.01 19 1018.7
20181019025757 69 288 2.0 3.0 0.00 0.00 0.01 19 1018.7
20181019025356 69 270 5.0 7.0 0.00 0.00 0.01 19 1018.8
20181019025132 70 270 6.0 6.0 0.00 0.00 0.01 19 1018.7
20181019024955 70 270 6.0 6.0 0.00 0.00 0.01 19 1018.7
20181019024733 70 236 4.0 5.0 0.00 0.00 0.01 19 1018.7
20181019024600 70 236 4.0 5.0 0.00 0.00 0.01 19 1018.7
20181019024552 70 236 4.0 5.0 0.00 0.00 0.01 19 1018.7
20181019024345 70 261 4.0 7.0 0.00 0.00 0.01 19 1018.6
20181019024151 70 261 4.0 7.0 0.00 0.00 0.01 19 1018.6
20181019023750 70 231 4.0 6.0 0.00 0.00 0.01 19 1018.7
20181019023605 71 243 3.0 6.0 0.00 0.00 0.01 19 1018.7